Portada
METAR-TAF:

METAR-TAF

Aeropuertos :

Athens, Tennessee, Estados Unidos

latitud: 35-23-50N, longitud: 084-33-45W, altitud: 262 m

Observación

El informe se hizo hace 31 minutos, a las 22:15 UTC
Viento 4 kt con dirección variable
Temperatura 10°C
Humedad 82%
Presión 1013 hPa
Visibilidad: 16.1 km
Escasas nubes a una altura de 2800 ft
Nubes dispersas a una altura de 4700 ft

METAR: KMMI 242215Z AUTO VRB04KT 10SM FEW028 SCT047 10/07 A2992 RMK A01

Hora: 16:46 (22:46 UTC)


TAF: falta

Observaciones y pronósticos meteorológicos de más de 4000 aeropuertos (mensajes METAR y TAF).

Los puntos amarillos y rojos representan las estaciones disponibles.

Ponga el ratón en el punto deseado para ver el nombre de la estación.

Haga clic para ver las observaciones y los pronósticos meteorológicos.

Para cambiar el mapa : haga clic en los botones verdes con una cruz de color negro para hacer un zoom, en el botón verde con un guión para alejar o en las flechas verdes para mapas adyacentes.


METAR-TAF: